createdAt,value
2019-06-20T00:00:46.578Z,24.17
2019-06-20T00:03:17.422Z,23.07
2019-06-20T00:05:47.936Z,22.23
2019-06-20T00:08:18.439Z,25.90
2019-06-20T00:10:49.087Z,23.53
2019-06-20T00:13:19.539Z,23.80
2019-06-20T00:15:50.245Z,23.37
2019-06-20T00:18:20.714Z,24.47
2019-06-20T00:20:51.161Z,24.40
2019-06-20T00:23:21.848Z,24.03
2019-06-20T00:25:52.424Z,25.07
2019-06-20T00:28:22.877Z,25.17
2019-06-20T00:30:53.493Z,25.63
2019-06-20T00:33:24.010Z,25.33
2019-06-20T00:35:54.650Z,28.07
2019-06-20T00:38:25.109Z,28.00
2019-06-20T00:40:55.577Z,26.37
2019-06-20T00:43:26.271Z,27.43
2019-06-20T00:45:56.749Z,26.03
2019-06-20T00:48:27.549Z,26.77
2019-06-20T00:50:57.937Z,26.27
2019-06-20T00:53:28.393Z,26.97
2019-06-20T00:55:58.821Z,26.33
2019-06-20T00:58:29.407Z,26.83
2019-06-20T01:00:59.850Z,25.33
2019-06-20T01:03:30.233Z,26.60
2019-06-20T01:06:00.668Z,29.20
2019-06-20T01:08:31.268Z,27.43
2019-06-20T01:11:01.759Z,26.77
2019-06-20T01:13:34.519Z,26.93
2019-06-20T01:16:06.578Z,30.13
2019-06-20T01:18:36.982Z,27.90
2019-06-20T01:21:08.963Z,26.57
2019-06-20T01:23:39.411Z,26.90
2019-06-20T01:26:10.146Z,26.67
2019-06-20T01:28:40.637Z,28.60
2019-06-20T01:31:11.118Z,27.73
2019-06-20T01:33:41.532Z,27.17
2019-06-20T01:36:12.158Z,29.33
2019-06-20T01:38:42.586Z,27.77
2019-06-20T01:41:13.392Z,35.87
2019-06-20T01:43:50.471Z,28.10
2019-06-20T01:46:16.788Z,28.60
2019-06-20T01:48:47.237Z,27.27
2019-06-20T01:51:17.712Z,27.07
2019-06-20T01:53:48.386Z,26.60
2019-06-20T01:56:18.812Z,26.43
2019-06-20T01:58:49.224Z,28.13
2019-06-20T02:01:19.683Z,27.60
2019-06-20T02:03:50.166Z,28.30
2019-06-20T02:06:20.619Z,28.33
2019-06-20T02:08:51.076Z,28.47
2019-06-20T02:11:21.679Z,27.23
2019-06-20T02:14:06.422Z,28.97
2019-06-20T02:16:24.222Z,28.27
2019-06-20T02:18:54.678Z,27.03
2019-06-20T02:21:25.529Z,26.43
2019-06-20T02:23:55.988Z,28.23
2019-06-20T02:26:26.553Z,26.40
2019-06-20T02:28:56.957Z,26.37
2019-06-20T02:31:28.470Z,26.87
2019-06-20T02:33:58.866Z,26.70
2019-06-20T02:36:29.491Z,32.57
2019-06-20T02:38:59.920Z,26.73
2019-06-20T02:41:30.364Z,26.90
2019-06-20T02:44:01.163Z,25.73
2019-06-20T02:46:31.865Z,28.23
2019-06-20T02:49:02.389Z,27.23
2019-06-20T02:51:33.091Z,28.77
2019-06-20T02:54:03.695Z,26.93
2019-06-20T02:56:35.171Z,25.97
2019-06-20T02:59:05.618Z,25.43
2019-06-20T03:01:36.156Z,23.77
2019-06-20T03:04:06.613Z,24.27
2019-06-20T03:06:37.054Z,25.70
2019-06-20T03:09:08.236Z,25.07
2019-06-20T03:11:38.652Z,24.33
2019-06-20T03:14:09.150Z,28.13
2019-06-20T03:16:39.554Z,25.63
2019-06-20T03:19:09.938Z,24.10
2019-06-20T03:21:40.470Z,26.57
2019-06-20T03:24:11.051Z,27.97
2019-06-20T03:26:41.457Z,23.10
2019-06-20T03:29:11.826Z,23.70
2019-06-20T03:31:42.685Z,24.13
2019-06-20T03:34:13.217Z,23.60
2019-06-20T03:36:43.906Z,24.27
2019-06-20T03:39:14.299Z,22.80
2019-06-20T03:41:44.797Z,21.50
2019-06-20T03:44:15.458Z,21.73
2019-06-20T03:46:45.848Z,22.40
2019-06-20T03:49:16.329Z,22.87
2019-06-20T03:51:46.812Z,21.77
2019-06-20T03:54:17.261Z,23.80
2019-06-20T03:56:47.654Z,20.77
2019-06-20T03:59:18.069Z,21.43
2019-06-20T04:01:49.309Z,20.13
2019-06-20T04:04:19.983Z,21.57
2019-06-20T04:06:50.435Z,20.57
2019-06-20T04:09:20.867Z,21.63
2019-06-20T04:11:51.355Z,21.03
2019-06-20T04:14:21.771Z,21.97
2019-06-20T04:16:52.181Z,20.27
2019-06-20T04:19:22.623Z,20.93
2019-06-20T04:21:53.378Z,20.70
2019-06-20T04:24:23.778Z,20.17
2019-06-20T04:26:54.182Z,22.17
2019-06-20T04:29:24.840Z,21.07
2019-06-20T04:31:55.272Z,21.00
2019-06-20T04:34:25.742Z,20.27
2019-06-20T04:36:56.541Z,20.23
2019-06-20T04:39:27.015Z,20.13
2019-06-20T04:41:57.448Z,19.30
2019-06-20T04:44:27.984Z,21.23
2019-06-20T04:47:04.227Z,18.60
2019-06-20T04:49:34.671Z,23.13
2019-06-20T04:52:05.074Z,19.73
2019-06-20T04:54:35.706Z,18.63
2019-06-20T04:57:06.108Z,17.10
2019-06-20T04:59:36.864Z,17.97
2019-06-20T05:02:07.298Z,17.80
2019-06-20T05:04:37.697Z,17.40
2019-06-20T05:07:16.374Z,16.57
2019-06-20T05:09:46.918Z,17.67
2019-06-20T05:12:17.422Z,17.80
2019-06-20T05:14:48.023Z,16.87
2019-06-20T05:17:18.421Z,16.73
2019-06-20T05:19:49.113Z,18.70
2019-06-20T05:22:19.505Z,16.37
2019-06-20T05:24:50.027Z,16.20
2019-06-20T05:27:21.873Z,15.43
2019-06-20T05:29:53.357Z,18.90
2019-06-20T05:32:23.822Z,16.53
2019-06-20T05:34:55.330Z,16.33
2019-06-20T05:37:25.929Z,16.27
2019-06-20T05:39:56.383Z,15.47
2019-06-20T05:42:26.884Z,14.83
2019-06-20T05:44:57.254Z,16.67
2019-06-20T05:47:27.657Z,15.60
2019-06-20T05:49:58.089Z,17.00
2019-06-20T05:52:28.643Z,17.20
2019-06-20T05:54:59.094Z,14.13
2019-06-20T05:57:29.515Z,17.03
2019-06-20T06:00:00.948Z,15.90
2019-06-20T06:02:31.456Z,15.53
2019-06-20T06:05:01.873Z,15.03
2019-06-20T06:07:32.474Z,15.50
2019-06-20T06:10:04.443Z,14.60
2019-06-20T06:12:36.354Z,17.03
2019-06-20T06:15:07.401Z,15.20
2019-06-20T06:17:38.635Z,14.70
2019-06-20T06:20:10.922Z,16.53
2019-06-20T06:22:44.566Z,15.60
2019-06-20T06:25:13.519Z,18.73
2019-06-20T06:27:44.012Z,16.83
2019-06-20T06:30:15.914Z,17.23
2019-06-20T06:32:46.469Z,15.73
2019-06-20T06:35:17.189Z,15.10
2019-06-20T06:37:47.799Z,14.67
2019-06-20T06:40:18.742Z,14.40
2019-06-20T06:42:49.158Z,15.47
2019-06-20T06:45:21.245Z,17.63
2019-06-20T06:47:51.755Z,15.60
2019-06-20T06:50:22.465Z,15.17
2019-06-20T06:52:52.961Z,15.67
2019-06-20T06:55:27.224Z,17.10
2019-06-20T06:57:55.651Z,16.40
2019-06-20T07:00:26.417Z,13.90
2019-06-20T07:02:56.865Z,16.47
2019-06-20T07:05:27.631Z,15.37
2019-06-20T07:07:58.121Z,19.60
2019-06-20T07:10:28.611Z,15.57
2019-06-20T07:12:59.634Z,15.93
2019-06-20T07:15:30.534Z,14.70
2019-06-20T07:18:01.938Z,14.90
2019-06-20T07:20:32.416Z,16.03
2019-06-20T07:23:03.003Z,14.80
2019-06-20T07:25:33.599Z,15.73
2019-06-20T07:28:04.510Z,14.40
2019-06-20T07:30:36.094Z,16.20
2019-06-20T07:33:06.755Z,16.27
2019-06-20T07:35:41.423Z,14.80
2019-06-20T07:38:09.238Z,18.73
2019-06-20T07:40:39.724Z,14.90
2019-06-20T07:43:10.295Z,15.93
2019-06-20T07:45:40.734Z,17.37
2019-06-20T07:48:11.212Z,14.40
2019-06-20T07:50:42.183Z,19.37
2019-06-20T07:53:12.638Z,14.97
2019-06-20T07:55:43.438Z,22.70
2019-06-20T07:58:13.886Z,77.27
2019-06-20T08:00:44.819Z,80.03
2019-06-20T08:03:15.662Z,34.03
2019-06-20T08:05:46.099Z,14.37
2019-06-20T08:08:16.535Z,15.10
2019-06-20T08:10:47.018Z,17.30
2019-06-20T08:13:17.694Z,16.27
2019-06-20T08:15:48.277Z,15.20
2019-06-20T08:18:18.823Z,19.97
2019-06-20T08:20:49.379Z,17.93
2019-06-20T08:23:19.867Z,16.13
2019-06-20T08:25:50.489Z,14.90
2019-06-20T08:28:21.071Z,14.07
2019-06-20T08:30:51.738Z,14.83
2019-06-20T08:33:22.186Z,13.63
2019-06-20T08:35:52.787Z,15.63
2019-06-20T08:38:23.531Z,17.10
2019-06-20T08:40:56.505Z,16.50
2019-06-20T08:43:27.627Z,14.60
2019-06-20T08:45:59.502Z,14.37
2019-06-20T08:48:30.284Z,14.37
2019-06-20T08:51:02.175Z,13.27
2019-06-20T08:53:35.850Z,15.43
2019-06-20T08:56:06.688Z,14.03
2019-06-20T08:58:37.262Z,14.37
2019-06-20T09:03:39.409Z,15.27
2019-06-20T09:06:09.868Z,16.27
2019-06-20T09:08:40.729Z,20.37
2019-06-20T09:11:13.194Z,13.70
2019-06-20T09:13:43.890Z,18.13
2019-06-20T09:16:24.296Z,14.73
2019-06-20T09:18:46.601Z,14.40
2019-06-20T09:21:17.332Z,14.80
2019-06-20T09:23:47.717Z,17.33
2019-06-20T09:26:18.174Z,14.77
2019-06-20T09:28:48.932Z,14.30
2019-06-20T09:31:19.537Z,13.80
2019-06-20T09:33:52.117Z,15.10
2019-06-20T09:36:22.927Z,14.33
2019-06-20T09:38:53.988Z,12.63
2019-06-20T09:41:25.813Z,12.40
2019-06-20T09:43:58.493Z,12.20
2019-06-20T09:46:29.054Z,11.23
2019-06-20T09:48:59.873Z,12.93
2019-06-20T09:51:31.527Z,14.37
2019-06-20T09:54:02.012Z,14.87
2019-06-20T09:56:32.764Z,15.23
2019-06-20T09:59:03.401Z,12.60
2019-06-20T10:01:34.155Z,14.17
2019-06-20T10:04:05.106Z,12.10
2019-06-20T10:06:35.629Z,12.83
2019-06-20T10:09:08.056Z,12.47
2019-06-20T10:11:38.661Z,13.13
2019-06-20T10:14:10.282Z,11.30
2019-06-20T10:16:45.864Z,11.90
2019-06-20T10:19:13.514Z,11.60
2019-06-20T10:21:46.237Z,12.77
2019-06-20T10:24:16.789Z,11.27
2019-06-20T10:26:48.296Z,12.00
2019-06-20T10:29:19.882Z,11.73
2019-06-20T10:31:50.854Z,13.43
2019-06-20T10:34:21.552Z,12.60
2019-06-20T10:36:52.392Z,11.93
2019-06-20T10:39:23.038Z,13.53
2019-06-20T10:41:53.678Z,15.57
2019-06-20T10:44:24.122Z,12.63
2019-06-20T10:46:54.726Z,12.67
2019-06-20T10:49:25.357Z,13.90
2019-06-20T10:51:55.834Z,14.47
2019-06-20T10:54:26.514Z,13.40
2019-06-20T10:56:57.402Z,14.87
2019-06-20T10:59:27.832Z,12.87
2019-06-20T11:01:58.246Z,12.27
2019-06-20T11:04:28.888Z,12.73
2019-06-20T11:06:59.285Z,12.53
2019-06-20T11:09:29.945Z,14.60
2019-06-20T11:12:00.374Z,12.20
2019-06-20T11:14:30.828Z,12.63
2019-06-20T11:17:01.455Z,12.43
2019-06-20T11:19:32.089Z,11.70
2019-06-20T11:22:02.779Z,13.87
2019-06-20T11:24:33.410Z,14.63
2019-06-20T11:27:04.137Z,13.90
2019-06-20T11:29:35.043Z,11.87
2019-06-20T11:32:05.515Z,11.27
2019-06-20T11:34:37.729Z,12.10
2019-06-20T11:37:08.465Z,11.87
2019-06-20T11:39:38.988Z,12.40
2019-06-20T11:42:09.537Z,10.80
2019-06-20T11:44:40.866Z,11.67
2019-06-20T11:47:11.582Z,12.55
2019-06-20T11:49:42.521Z,10.32
2019-06-20T11:52:12.990Z,10.32
2019-06-20T11:54:43.628Z,9.93
2019-06-20T11:57:14.276Z,9.77
2019-06-20T11:59:44.684Z,10.98
2019-06-20T12:02:15.110Z,9.50
2019-06-20T12:04:46.904Z,8.73
2019-06-20T12:07:17.784Z,9.90
2019-06-20T12:09:49.181Z,8.70
2019-06-20T12:12:20.238Z,8.55
2019-06-20T12:14:50.778Z,9.40
2019-06-20T12:17:21.368Z,8.18
2019-06-20T12:19:52.228Z,7.62
2019-06-20T12:22:23.349Z,9.13
2019-06-20T12:24:54.133Z,8.10
2019-06-20T12:27:24.564Z,10.03
2019-06-20T12:29:55.021Z,9.63
2019-06-20T12:32:25.823Z,8.78
2019-06-20T12:34:57.293Z,8.65
2019-06-20T12:37:27.726Z,7.10
2019-06-20T12:39:58.423Z,7.92
2019-06-20T12:42:28.910Z,6.75
2019-06-20T12:44:59.335Z,6.45
2019-06-20T12:47:30.038Z,7.80
2019-06-20T12:50:00.587Z,6.53
2019-06-20T12:52:31.377Z,8.05
2019-06-20T12:55:01.796Z,6.53
2019-06-20T12:57:32.275Z,7.37
2019-06-20T13:00:03.232Z,6.65
2019-06-20T13:02:34.146Z,8.88
2019-06-20T13:05:06.971Z,7.12
2019-06-20T13:07:38.602Z,7.37
2019-06-20T13:10:09.807Z,7.95
2019-06-20T13:12:42.254Z,7.80
2019-06-20T13:15:12.895Z,7.30
2019-06-20T13:17:44.860Z,7.60
2019-06-20T13:20:16.061Z,6.37
2019-06-20T13:22:46.642Z,6.85
2019-06-20T13:25:17.606Z,6.28
2019-06-20T13:27:48.367Z,5.42
2019-06-20T13:30:21.270Z,6.30
2019-06-20T13:32:52.370Z,4.70
2019-06-20T13:35:23.190Z,4.92
2019-06-20T13:37:54.621Z,3.35
2019-06-20T13:40:25.543Z,4.15
2019-06-20T13:42:56.002Z,2.87
2019-06-20T13:45:27.303Z,2.85
2019-06-20T13:47:59.074Z,3.35
2019-06-20T13:50:29.498Z,2.72
2019-06-20T13:53:00.212Z,3.70
2019-06-20T13:55:30.826Z,3.62
2019-06-20T13:58:01.274Z,4.60
2019-06-20T14:00:33.468Z,3.98
2019-06-20T14:03:04.068Z,3.77
2019-06-20T14:05:34.733Z,3.70
2019-06-20T14:08:05.644Z,3.98
2019-06-20T14:10:36.086Z,4.40
2019-06-20T14:13:18.786Z,5.00
2019-06-20T14:15:38.907Z,4.17
2019-06-20T14:18:09.618Z,4.03
2019-06-20T14:20:40.459Z,4.78
2019-06-20T14:23:10.900Z,4.47
2019-06-20T14:25:42.424Z,4.17
2019-06-20T14:28:13.823Z,4.85
2019-06-20T14:30:45.004Z,4.60
2019-06-20T14:33:16.549Z,4.22
2019-06-20T14:35:47.857Z,4.90
2019-06-20T14:38:19.712Z,4.37
2019-06-20T14:40:50.607Z,5.25
2019-06-20T14:43:21.043Z,3.80
2019-06-20T14:45:51.491Z,3.90
2019-06-20T14:48:22.756Z,3.60
2019-06-20T14:50:53.546Z,4.62
2019-06-20T14:53:25.093Z,3.77
2019-06-20T14:55:55.672Z,3.72
2019-06-20T14:58:26.124Z,3.50
2019-06-20T15:00:57.916Z,2.80
2019-06-20T15:03:28.375Z,3.08
2019-06-20T15:05:59.256Z,2.98
2019-06-20T15:08:29.678Z,3.17
2019-06-20T15:11:00.192Z,2.92
2019-06-20T15:13:30.641Z,3.58
2019-06-20T15:16:01.236Z,4.08
2019-06-20T15:18:31.729Z,2.90
2019-06-20T15:21:02.380Z,2.95
2019-06-20T15:23:32.936Z,2.58
2019-06-20T15:26:03.406Z,2.00
2019-06-20T15:28:34.124Z,2.50
2019-06-20T15:31:05.070Z,2.85
2019-06-20T15:33:35.502Z,2.42
2019-06-20T15:36:06.391Z,2.77
2019-06-20T15:38:38.016Z,3.17
2019-06-20T15:41:08.436Z,3.42
2019-06-20T15:43:40.293Z,3.90
2019-06-20T15:46:10.850Z,2.58
2019-06-20T15:48:41.410Z,2.98
2019-06-20T15:51:12.073Z,4.05
2019-06-20T15:53:49.878Z,4.60
2019-06-20T15:56:20.312Z,10.38
2019-06-20T15:58:50.891Z,5.83
2019-06-20T16:01:21.490Z,4.47
2019-06-20T16:03:52.008Z,7.12
2019-06-20T16:06:22.642Z,6.83
2019-06-20T16:08:53.326Z,14.05
2019-06-20T16:11:24.030Z,9.03
2019-06-20T16:13:54.681Z,4.55
2019-06-20T16:16:25.476Z,4.80
2019-06-20T16:18:55.952Z,4.85
2019-06-20T16:21:26.482Z,4.75
2019-06-20T16:23:56.966Z,5.47
2019-06-20T16:26:27.552Z,3.90
2019-06-20T16:28:58.292Z,3.95
2019-06-20T16:31:28.876Z,5.10
2019-06-20T16:33:59.408Z,4.17
2019-06-20T16:36:29.862Z,8.43
2019-06-20T16:39:01.210Z,5.15
2019-06-20T16:41:33.333Z,6.22
2019-06-20T16:44:04.238Z,4.03
2019-06-20T16:46:34.636Z,3.83
2019-06-20T16:49:05.372Z,5.33
2019-06-20T16:51:35.910Z,6.62
2019-06-20T16:54:06.358Z,5.40
2019-06-20T16:56:37.019Z,4.62
2019-06-20T16:59:07.540Z,5.42
2019-06-20T17:01:39.301Z,5.20
2019-06-20T17:04:09.940Z,5.03
2019-06-20T17:06:40.815Z,5.95
2019-06-20T17:09:11.270Z,5.35
2019-06-20T17:11:41.953Z,5.45
2019-06-20T17:14:12.603Z,7.33
2019-06-20T17:16:43.353Z,8.13
2019-06-20T17:19:14.097Z,6.12
2019-06-20T17:21:44.919Z,4.97
2019-06-20T17:24:15.346Z,4.85
2019-06-20T17:26:46.097Z,5.93
2019-06-20T17:29:16.726Z,4.95
2019-06-20T17:31:47.654Z,6.42
2019-06-20T17:34:18.099Z,5.42
2019-06-20T17:37:34.857Z,6.83
2019-06-20T17:40:10.808Z,6.30
2019-06-20T17:42:41.317Z,5.83
2019-06-20T17:45:14.118Z,6.67
2019-06-20T17:47:44.604Z,5.50
2019-06-20T17:50:16.981Z,12.53
2019-06-20T17:52:47.504Z,7.35
2019-06-20T17:55:18.947Z,7.50
2019-06-20T17:57:49.508Z,7.08
2019-06-20T18:00:21.682Z,12.73
2019-06-20T18:02:52.174Z,6.47
2019-06-20T18:05:24.210Z,10.30
2019-06-20T18:07:55.949Z,5.40
2019-06-20T18:10:28.095Z,7.40
2019-06-20T18:12:58.670Z,7.80
2019-06-20T18:15:29.343Z,7.13
2019-06-20T18:17:59.966Z,9.80
2019-06-20T18:20:30.616Z,7.27
2019-06-20T18:23:01.150Z,8.17
2019-06-20T18:25:33.160Z,9.23
2019-06-20T18:28:03.894Z,6.77
2019-06-20T18:30:41.164Z,6.77
2019-06-20T18:33:11.752Z,7.60
2019-06-20T18:35:42.230Z,9.23
2019-06-20T18:38:13.096Z,11.20
2019-06-20T18:40:43.656Z,8.17
2019-06-20T18:43:14.156Z,8.57
2019-06-20T18:45:44.650Z,8.17
2019-06-20T18:48:15.047Z,10.33
2019-06-20T18:50:45.900Z,8.70
2019-06-20T18:53:17.558Z,8.10
2019-06-20T18:55:48.358Z,7.93
2019-06-20T18:58:18.837Z,9.30
2019-06-20T19:00:49.667Z,11.50
2019-06-20T19:03:21.410Z,8.67
2019-06-20T19:05:52.661Z,11.20
2019-06-20T19:08:24.427Z,8.60
2019-06-20T19:10:55.213Z,11.27
2019-06-20T19:13:25.716Z,10.27
2019-06-20T19:15:56.675Z,8.77
2019-06-20T19:18:27.283Z,7.67
2019-06-20T19:20:57.979Z,7.23
2019-06-20T19:23:28.537Z,9.60
2019-06-20T19:25:59.303Z,7.33
2019-06-20T19:28:29.889Z,6.27
2019-06-20T19:31:00.783Z,9.33
2019-06-20T19:33:31.416Z,5.47
2019-06-20T19:36:02.093Z,5.73
2019-06-20T19:38:32.599Z,9.27
2019-06-20T19:41:03.204Z,5.30
2019-06-20T19:43:33.780Z,8.60
2019-06-20T19:46:04.379Z,5.30
2019-06-20T19:48:36.848Z,5.60
2019-06-20T19:51:07.606Z,7.90
2019-06-20T19:53:38.282Z,5.77
2019-06-20T19:56:09.749Z,4.83
2019-06-20T19:58:40.250Z,4.53
2019-06-20T20:01:10.868Z,7.20
2019-06-20T20:03:41.412Z,4.57
2019-06-20T20:06:11.920Z,7.13
2019-06-20T20:08:42.578Z,3.83
2019-06-20T20:11:24.634Z,4.73
2019-06-20T20:13:55.444Z,3.90
2019-06-20T20:16:26.152Z,4.07
2019-06-20T20:18:56.732Z,3.60
2019-06-20T20:21:27.157Z,10.50
2019-06-20T20:23:57.544Z,3.93
2019-06-20T20:26:28.452Z,4.73
2019-06-20T20:28:58.878Z,5.40
2019-06-20T20:31:29.606Z,20.20
2019-06-20T20:34:00.342Z,13.87
2019-06-20T20:36:30.757Z,8.73
2019-06-20T20:39:01.481Z,5.37
2019-06-20T20:41:33.493Z,3.60
2019-06-20T20:44:03.945Z,5.40
2019-06-20T20:46:34.663Z,4.60
2019-06-20T20:49:05.295Z,4.13
2019-06-20T20:51:36.143Z,6.03
2019-06-20T20:54:07.787Z,4.73
2019-06-20T20:56:38.467Z,4.70
2019-06-20T20:59:09.003Z,4.30
2019-06-20T21:01:39.405Z,6.30
2019-06-20T21:04:10.207Z,4.90
2019-06-20T21:06:40.704Z,4.80
2019-06-20T21:09:11.178Z,5.77
2019-06-20T21:11:41.672Z,5.13
2019-06-20T21:14:12.138Z,8.37
2019-06-20T21:16:42.634Z,4.80
2019-06-20T21:19:13.129Z,6.33
2019-06-20T21:21:43.522Z,5.77
2019-06-20T21:24:14.068Z,6.57
2019-06-20T21:26:49.937Z,9.40
2019-06-20T21:29:17.967Z,7.00
2019-06-20T21:31:49.494Z,5.90
2019-06-20T21:34:21.334Z,5.73
2019-06-20T21:36:52.003Z,6.20
2019-06-20T21:39:22.567Z,5.93
2019-06-20T21:41:53.339Z,5.73
2019-06-20T21:44:23.877Z,5.00
2019-06-20T21:46:54.460Z,6.37
2019-06-20T21:49:25.378Z,7.20
2019-06-20T21:51:55.923Z,5.50
2019-06-20T21:54:26.353Z,10.60
2019-06-20T21:56:56.991Z,5.53
2019-06-20T21:59:27.491Z,6.70
2019-06-20T22:01:58.113Z,4.80
2019-06-20T22:04:28.717Z,4.70
2019-06-20T22:06:59.589Z,5.77
2019-06-20T22:09:30.194Z,6.20
2019-06-20T22:12:00.799Z,5.37
2019-06-20T22:14:32.511Z,5.03
2019-06-20T22:17:03.356Z,5.13
2019-06-20T22:19:33.801Z,7.23
2019-06-20T22:22:04.674Z,5.23
2019-06-20T22:24:35.295Z,7.80
2019-06-20T22:27:06.177Z,5.17
2019-06-20T22:29:36.854Z,8.47
2019-06-20T22:32:07.534Z,7.37
2019-06-20T22:34:37.986Z,9.43
2019-06-20T22:37:08.763Z,6.80
2019-06-20T22:39:39.488Z,9.30
2019-06-20T22:42:11.864Z,6.20
2019-06-20T22:44:42.400Z,6.67
2019-06-20T22:47:12.834Z,6.33
2019-06-20T22:49:43.553Z,6.40
2019-06-20T22:52:14.123Z,6.77
2019-06-20T22:54:44.750Z,6.57
2019-06-20T22:57:15.349Z,6.97
2019-06-20T22:59:46.727Z,8.03
2019-06-20T23:02:17.390Z,9.77
2019-06-20T23:04:48.092Z,8.17
2019-06-20T23:07:18.488Z,7.03
2019-06-20T23:09:49.177Z,7.93
2019-06-20T23:12:19.868Z,12.40
2019-06-20T23:14:50.439Z,8.00
2019-06-20T23:17:21.021Z,8.93
2019-06-20T23:19:51.821Z,8.60
2019-06-20T23:22:22.271Z,8.33
2019-06-20T23:24:52.784Z,9.27
2019-06-20T23:27:23.473Z,9.27
2019-06-20T23:29:53.886Z,9.57
2019-06-20T23:32:24.701Z,9.47
2019-06-20T23:34:55.108Z,11.30
2019-06-20T23:37:25.564Z,10.60
2019-06-20T23:39:55.962Z,11.20
2019-06-20T23:42:26.663Z,10.03
2019-06-20T23:44:57.235Z,9.43
2019-06-20T23:47:28.216Z,9.30
2019-06-20T23:49:58.907Z,9.77
2019-06-20T23:52:32.077Z,9.07
2019-06-20T23:55:02.566Z,9.90
2019-06-20T23:57:33.072Z,10.03
